createdAt,value
2023-05-23T00:01:33.750Z,6.27
2023-05-23T00:04:03.407Z,7.27
2023-05-23T00:06:31.756Z,6.83
2023-05-23T00:09:00.225Z,6.70
2023-05-23T00:11:29.169Z,6.97
2023-05-23T00:14:01.181Z,7.40
2023-05-23T00:16:29.681Z,7.77
2023-05-23T00:18:59.349Z,7.70
2023-05-23T00:21:30.679Z,7.13
2023-05-23T00:23:59.657Z,7.03
2023-05-23T00:26:30.174Z,7.60
2023-05-23T00:28:59.076Z,7.37
2023-05-23T00:31:27.500Z,7.67
2023-05-23T00:33:56.137Z,7.63
2023-05-23T00:36:24.434Z,8.03
2023-05-23T00:38:54.301Z,8.40
2023-05-23T00:41:22.581Z,8.40
2023-05-23T00:43:51.049Z,7.60
2023-05-23T00:46:19.361Z,7.43
2023-05-23T00:48:47.674Z,7.37
2023-05-23T00:51:16.099Z,7.50
2023-05-23T00:53:44.654Z,6.30
2023-05-23T00:56:14.629Z,6.97
2023-05-23T00:58:42.995Z,6.33
2023-05-23T01:01:11.279Z,6.60
2023-05-23T01:03:39.642Z,6.70
2023-05-23T01:06:08.656Z,7.07
2023-05-23T01:08:36.901Z,7.60
2023-05-23T01:11:08.896Z,7.50
2023-05-23T01:13:41.875Z,7.47
2023-05-23T01:16:13.921Z,7.50
2023-05-23T01:18:46.548Z,8.10
2023-05-23T01:21:18.156Z,8.50
2023-05-23T01:24:07.182Z,9.33
2023-05-23T01:26:43.043Z,9.17
2023-05-23T01:29:13.702Z,9.43
2023-05-23T01:31:45.006Z,9.87
2023-05-23T01:34:14.230Z,10.37
2023-05-23T01:36:44.094Z,10.57
2023-05-23T01:39:12.653Z,11.20
2023-05-23T01:41:41.000Z,11.13
2023-05-23T01:44:09.922Z,11.63
2023-05-23T01:46:40.494Z,12.33
2023-05-23T01:49:10.198Z,13.17
2023-05-23T01:51:38.596Z,13.13
2023-05-23T01:54:06.940Z,14.10
2023-05-23T01:56:35.761Z,13.63
2023-05-23T01:59:04.402Z,14.77
2023-05-23T02:01:33.091Z,15.50
2023-05-23T02:04:02.757Z,15.20
2023-05-23T02:06:31.894Z,14.43
2023-05-23T02:09:00.163Z,15.23
2023-05-23T02:11:28.398Z,15.50
2023-05-23T02:13:56.703Z,14.87
2023-05-23T02:16:26.165Z,15.93
2023-05-23T02:18:56.571Z,15.90
2023-05-23T02:21:26.770Z,14.50
2023-05-23T02:23:54.994Z,15.47
2023-05-23T02:26:24.687Z,14.67
2023-05-23T02:28:53.032Z,13.40
2023-05-23T02:31:21.568Z,14.27
2023-05-23T02:33:49.906Z,12.37
2023-05-23T02:36:18.263Z,13.50
2023-05-23T02:38:47.837Z,13.23
2023-05-23T02:41:16.065Z,12.57
2023-05-23T02:43:45.659Z,12.63
2023-05-23T02:46:15.128Z,11.77
2023-05-23T02:48:43.408Z,12.53
2023-05-23T02:51:13.531Z,11.00
2023-05-23T02:53:42.239Z,11.37
2023-05-23T02:56:13.462Z,11.00
2023-05-23T02:58:41.770Z,9.83
2023-05-23T03:01:10.110Z,10.77
2023-05-23T03:03:38.560Z,9.93
2023-05-23T03:06:07.111Z,10.17
2023-05-23T03:08:35.373Z,9.50
2023-05-23T03:11:03.659Z,9.33
2023-05-23T03:13:33.288Z,9.40
2023-05-23T03:16:01.588Z,9.30
2023-05-23T03:18:29.979Z,8.70
2023-05-23T03:20:58.356Z,8.17
2023-05-23T03:23:26.621Z,8.73
2023-05-23T03:25:54.923Z,8.50
2023-05-23T03:28:23.180Z,8.73
2023-05-23T03:30:52.797Z,8.83
2023-05-23T03:33:21.054Z,9.37
2023-05-23T03:35:49.315Z,8.83
2023-05-23T03:38:17.625Z,7.90
2023-05-23T03:40:45.955Z,8.10
2023-05-23T03:43:14.287Z,8.63
2023-05-23T03:45:42.743Z,9.17
2023-05-23T03:48:12.871Z,8.67
2023-05-23T03:50:41.468Z,9.37
2023-05-23T03:53:09.864Z,10.30
2023-05-23T03:55:38.131Z,10.20
2023-05-23T03:58:06.416Z,10.20
2023-05-23T04:00:34.776Z,10.97
2023-05-23T04:03:03.214Z,11.47
2023-05-23T04:05:32.949Z,10.90
2023-05-23T04:08:02.241Z,11.60
2023-05-23T04:10:30.534Z,12.13
2023-05-23T04:12:58.846Z,12.23
2023-05-23T04:15:28.016Z,11.37
2023-05-23T04:17:56.367Z,12.50
2023-05-23T04:20:24.976Z,12.60
2023-05-23T04:22:54.585Z,12.23
2023-05-23T04:25:22.938Z,13.03
2023-05-23T04:27:51.281Z,12.03
2023-05-23T04:30:19.560Z,13.30
2023-05-23T04:32:48.311Z,12.80
2023-05-23T04:35:16.676Z,13.17
2023-05-23T04:37:45.575Z,11.87
2023-05-23T04:40:16.158Z,11.73
2023-05-23T04:42:44.546Z,12.13
2023-05-23T04:45:13.119Z,12.50
2023-05-23T04:47:42.083Z,11.70
2023-05-23T04:50:10.747Z,11.97
2023-05-23T04:52:39.029Z,12.43
2023-05-23T04:55:08.624Z,12.83
2023-05-23T04:57:38.463Z,13.27
2023-05-23T05:00:10.350Z,11.97
2023-05-23T05:02:38.749Z,11.80
2023-05-23T05:05:07.373Z,12.20
2023-05-23T05:07:36.996Z,12.00
2023-05-23T05:10:05.631Z,10.97
2023-05-23T05:12:34.449Z,10.60
2023-05-23T05:15:04.524Z,10.53
2023-05-23T05:17:36.947Z,9.97
2023-05-23T05:20:08.550Z,9.93
2023-05-23T05:22:36.955Z,10.13
2023-05-23T05:25:07.249Z,9.17
2023-05-23T05:27:37.863Z,9.20
2023-05-23T05:30:09.291Z,8.70
2023-05-23T05:32:37.666Z,7.83
2023-05-23T05:35:07.775Z,7.20
2023-05-23T05:37:36.044Z,9.23
2023-05-23T05:40:07.389Z,5.80
2023-05-23T05:42:35.779Z,5.23
2023-05-23T05:45:04.056Z,5.50
2023-05-23T05:47:33.787Z,5.67
2023-05-23T05:50:02.131Z,6.73
2023-05-23T05:52:30.545Z,5.43
2023-05-23T05:54:58.801Z,5.27
2023-05-23T05:57:27.085Z,5.93
2023-05-23T05:59:55.421Z,5.67
2023-05-23T06:02:23.745Z,5.30
2023-05-23T06:04:53.670Z,5.20
2023-05-23T06:07:22.134Z,5.23
2023-05-23T06:09:50.411Z,4.97
2023-05-23T06:12:18.680Z,5.60
2023-05-23T06:14:46.919Z,5.07
2023-05-23T06:17:16.931Z,4.70
2023-05-23T06:19:45.267Z,4.40
2023-05-23T06:22:15.050Z,4.67
2023-05-23T06:24:43.323Z,4.60
2023-05-23T06:27:11.802Z,4.80
2023-05-23T06:29:40.110Z,3.97
2023-05-23T06:32:08.605Z,4.70
2023-05-23T06:34:36.969Z,5.03
2023-05-23T06:37:05.294Z,5.13
2023-05-23T06:39:35.361Z,4.73
2023-05-23T06:42:04.374Z,4.73
2023-05-23T06:44:32.669Z,4.80
2023-05-23T06:47:01.071Z,5.00
2023-05-23T06:49:29.353Z,5.47
2023-05-23T06:51:57.648Z,5.27
2023-05-23T06:54:25.957Z,5.47
2023-05-23T06:56:55.672Z,4.83
2023-05-23T06:59:23.970Z,4.50
2023-05-23T07:01:52.211Z,5.20
2023-05-23T07:04:20.565Z,4.80
2023-05-23T07:06:49.977Z,4.97
2023-05-23T07:09:18.229Z,4.77
2023-05-23T07:11:46.586Z,4.90
2023-05-23T07:14:16.981Z,5.00
2023-05-23T07:16:45.351Z,4.73
2023-05-23T07:19:14.025Z,4.80
2023-05-23T07:21:42.323Z,4.60
2023-05-23T07:24:10.613Z,5.80
2023-05-23T07:26:38.879Z,4.50
2023-05-23T07:29:07.223Z,5.30
2023-05-23T07:31:36.999Z,5.03
2023-05-23T07:34:05.481Z,5.10
2023-05-23T07:36:35.716Z,5.83
2023-05-23T07:39:04.294Z,4.63
2023-05-23T07:41:32.606Z,4.60
2023-05-23T07:44:00.966Z,4.50
2023-05-23T07:46:29.332Z,4.80
2023-05-23T07:48:58.992Z,4.33
2023-05-23T07:51:27.301Z,5.83
2023-05-23T07:53:55.647Z,4.73
2023-05-23T07:56:23.942Z,5.03
2023-05-23T07:58:52.245Z,4.73
2023-05-23T08:01:20.549Z,5.00
2023-05-23T08:03:48.827Z,4.80
2023-05-23T08:06:18.494Z,5.23
2023-05-23T08:08:47.421Z,5.20
2023-05-23T08:11:16.285Z,5.53
2023-05-23T08:13:44.564Z,5.10
2023-05-23T08:16:12.882Z,5.20
2023-05-23T08:18:41.840Z,4.67
2023-05-23T08:21:10.184Z,4.30
2023-05-23T08:23:40.065Z,4.00
2023-05-23T08:26:08.590Z,5.13
2023-05-23T08:28:36.942Z,3.97
2023-05-23T08:31:05.311Z,3.90
2023-05-23T08:33:33.613Z,3.90
2023-05-23T08:36:01.997Z,4.10
2023-05-23T08:38:30.301Z,3.87
2023-05-23T08:41:01.174Z,3.93
2023-05-23T08:43:29.694Z,4.70
2023-05-23T08:45:58.578Z,5.33
2023-05-23T08:48:28.401Z,6.53
2023-05-23T08:50:56.759Z,6.33
2023-05-23T08:53:26.598Z,6.70
2023-05-23T08:55:58.766Z,6.53
2023-05-23T08:58:29.962Z,6.80
2023-05-23T09:00:58.637Z,6.67
2023-05-23T09:03:27.875Z,6.00
2023-05-23T09:05:56.449Z,5.57
2023-05-23T09:08:25.565Z,4.87
2023-05-23T09:10:54.092Z,4.97
2023-05-23T09:13:22.405Z,5.20
2023-05-23T09:16:14.669Z,4.73
2023-05-23T09:18:45.127Z,4.47
2023-05-23T09:21:14.497Z,4.30
2023-05-23T09:23:43.643Z,4.07
2023-05-23T09:26:13.258Z,4.10
2023-05-23T09:28:42.036Z,4.30
2023-05-23T09:31:10.995Z,4.20
2023-05-23T09:33:41.366Z,4.33
2023-05-23T09:36:11.523Z,4.23
2023-05-23T09:38:40.608Z,4.17
2023-05-23T09:41:12.035Z,3.83
2023-05-23T09:43:41.019Z,4.53
2023-05-23T09:46:09.977Z,4.00
2023-05-23T09:48:38.466Z,4.07
2023-05-23T09:51:07.259Z,4.50
2023-05-23T09:53:37.513Z,4.53
2023-05-23T09:56:06.606Z,3.93
2023-05-23T09:58:35.304Z,4.07
2023-05-23T10:01:04.784Z,4.13
2023-05-23T10:03:36.057Z,4.13
2023-05-23T10:06:09.746Z,4.10
2023-05-23T10:08:41.813Z,4.37
2023-05-23T10:11:31.091Z,4.27
2023-05-23T10:14:00.037Z,5.17
2023-05-23T10:16:31.403Z,4.80
2023-05-23T10:19:01.280Z,4.17
2023-05-23T10:21:33.168Z,4.13
2023-05-23T10:24:02.968Z,4.00
2023-05-23T10:26:31.301Z,4.20
2023-05-23T10:28:59.748Z,3.90
2023-05-23T10:31:28.674Z,4.87
2023-05-23T10:34:00.426Z,4.43
2023-05-23T10:36:32.985Z,4.70
2023-05-23T10:39:06.520Z,4.57
2023-05-23T10:41:38.538Z,4.70
2023-05-23T10:44:09.035Z,4.27
2023-05-23T10:46:52.862Z,3.90
2023-05-23T10:49:21.494Z,4.37
2023-05-23T10:51:51.928Z,4.67
2023-05-23T10:54:21.904Z,4.03
2023-05-23T10:57:04.406Z,4.13
2023-05-23T10:59:32.848Z,4.33
2023-05-23T11:02:02.720Z,4.17
2023-05-23T11:04:31.562Z,4.70
2023-05-23T11:07:00.101Z,4.00
2023-05-23T11:09:29.759Z,4.60
2023-05-23T11:12:02.811Z,3.90
2023-05-23T11:14:54.441Z,4.57
2023-05-23T11:17:32.518Z,4.30
2023-05-23T11:20:02.045Z,3.70
2023-05-23T11:22:31.183Z,4.50
2023-05-23T11:25:01.621Z,3.83
2023-05-23T11:27:30.769Z,4.10
2023-05-23T11:30:00.003Z,4.28
2023-05-23T11:32:30.299Z,4.10
2023-05-23T11:35:00.896Z,3.92
2023-05-23T11:37:29.303Z,3.67
2023-05-23T11:39:57.621Z,4.10
2023-05-23T11:42:27.534Z,4.10
2023-05-23T11:44:55.942Z,4.00
2023-05-23T11:47:24.391Z,3.70
2023-05-23T11:49:52.820Z,4.37
2023-05-23T11:52:21.336Z,4.53
2023-05-23T11:54:49.733Z,4.03
2023-05-23T11:57:18.096Z,3.80
2023-05-23T11:59:47.801Z,3.57
2023-05-23T12:02:16.319Z,4.47
2023-05-23T12:04:44.720Z,4.13
2023-05-23T12:07:13.283Z,4.20
2023-05-23T12:09:45.151Z,4.10
2023-05-23T12:12:14.115Z,4.05
2023-05-23T12:14:44.736Z,4.05
2023-05-23T12:17:15.119Z,4.07
2023-05-23T12:19:47.928Z,3.63
2023-05-23T12:22:16.220Z,4.00
2023-05-23T12:24:47.530Z,3.53
2023-05-23T12:27:15.821Z,3.53
2023-05-23T12:29:44.225Z,3.58
2023-05-23T12:32:12.652Z,3.40
2023-05-23T12:34:44.354Z,3.83
2023-05-23T12:37:19.779Z,3.67
2023-05-23T12:39:48.894Z,3.47
2023-05-23T12:42:17.371Z,3.85
2023-05-23T12:44:46.158Z,3.80
2023-05-23T12:47:15.066Z,3.67
2023-05-23T12:49:46.968Z,3.67
2023-05-23T12:52:15.515Z,4.00
2023-05-23T12:54:43.823Z,3.60
2023-05-23T12:57:12.135Z,4.38
2023-05-23T12:59:40.392Z,3.55
2023-05-23T13:02:08.694Z,3.38
2023-05-23T13:04:37.020Z,3.75
2023-05-23T13:07:06.955Z,3.55
2023-05-23T13:09:35.284Z,3.90
2023-05-23T13:12:03.892Z,3.60
2023-05-23T13:14:32.244Z,3.42
2023-05-23T13:17:00.767Z,4.03
2023-05-23T13:19:29.419Z,3.33
2023-05-23T13:21:57.717Z,3.80
2023-05-23T13:24:27.400Z,3.55
2023-05-23T13:26:56.059Z,3.53
2023-05-23T13:29:24.390Z,4.07
2023-05-23T13:31:53.794Z,4.07
2023-05-23T13:34:22.109Z,3.78
2023-05-23T13:36:50.417Z,3.60
2023-05-23T13:39:21.017Z,3.13
2023-05-23T13:41:50.705Z,3.70
2023-05-23T13:44:19.111Z,3.70
2023-05-23T13:46:47.778Z,3.33
2023-05-23T13:49:16.302Z,3.05
2023-05-23T13:51:44.742Z,3.72
2023-05-23T13:54:14.006Z,3.00
2023-05-23T13:56:43.725Z,3.50
2023-05-23T13:59:13.790Z,3.00
2023-05-23T14:01:42.177Z,3.40
2023-05-23T14:04:10.621Z,3.25
2023-05-23T14:06:38.949Z,3.45
2023-05-23T14:09:07.798Z,3.40
2023-05-23T14:11:37.112Z,3.35
2023-05-23T14:14:05.656Z,3.83
2023-05-23T14:16:35.452Z,3.45
2023-05-23T14:19:03.782Z,3.30
2023-05-23T14:21:32.465Z,3.72
2023-05-23T14:24:00.801Z,3.00
2023-05-23T14:26:29.210Z,3.08
2023-05-23T14:28:57.811Z,3.00
2023-05-23T14:31:26.117Z,3.78
2023-05-23T14:33:55.917Z,3.10
2023-05-23T14:36:24.263Z,3.95
2023-05-23T14:38:52.598Z,3.83
2023-05-23T14:41:21.691Z,3.35
2023-05-23T14:43:50.033Z,2.90
2023-05-23T14:46:19.316Z,3.00
2023-05-23T14:48:47.640Z,3.50
2023-05-23T14:51:30.402Z,3.30
2023-05-23T14:54:06.084Z,2.70
2023-05-23T14:56:34.378Z,3.03
2023-05-23T14:59:02.655Z,3.35
2023-05-23T15:01:31.139Z,2.97
2023-05-23T15:03:59.543Z,2.85
2023-05-23T15:06:29.235Z,5.28
2023-05-23T15:08:57.595Z,3.17
2023-05-23T15:11:27.388Z,3.20
2023-05-23T15:13:56.470Z,3.35
2023-05-23T15:16:24.919Z,3.17
2023-05-23T15:18:53.232Z,3.10
2023-05-23T15:21:21.552Z,3.25
2023-05-23T15:23:51.380Z,2.90
2023-05-23T15:26:19.802Z,2.97
2023-05-23T15:28:48.232Z,2.72
2023-05-23T15:31:16.567Z,3.40
2023-05-23T15:33:44.901Z,3.22
2023-05-23T15:36:13.452Z,3.30
2023-05-23T15:38:42.037Z,3.78
2023-05-23T15:41:11.739Z,2.90
2023-05-23T15:43:40.035Z,2.97
2023-05-23T15:46:08.405Z,3.17
2023-05-23T15:48:36.756Z,3.22
2023-05-23T15:51:05.045Z,3.00
2023-05-23T15:53:40.145Z,3.00
2023-05-23T15:56:17.894Z,3.17
2023-05-23T15:58:46.144Z,3.00
2023-05-23T16:01:14.376Z,3.17
2023-05-23T16:03:42.760Z,2.88
2023-05-23T16:06:11.077Z,3.40
2023-05-23T16:08:39.359Z,3.33
2023-05-23T16:11:07.626Z,3.20
2023-05-23T16:13:37.275Z,2.60
2023-05-23T16:16:05.828Z,3.20
2023-05-23T16:18:34.202Z,3.42
2023-05-23T16:21:02.491Z,2.80
2023-05-23T16:23:30.814Z,2.80
2023-05-23T16:25:59.320Z,2.80
2023-05-23T16:28:28.526Z,2.70
2023-05-23T16:30:58.244Z,2.88
2023-05-23T16:33:26.502Z,3.17
2023-05-23T16:35:54.755Z,3.20
2023-05-23T16:38:23.035Z,3.60
2023-05-23T16:40:51.284Z,2.78
2023-05-23T16:43:19.596Z,2.67
2023-05-23T16:45:48.098Z,2.83
2023-05-23T16:48:18.121Z,2.92
2023-05-23T16:50:46.459Z,3.10
2023-05-23T16:53:14.804Z,3.22
2023-05-23T16:55:43.205Z,2.90
2023-05-23T16:58:12.214Z,2.90
2023-05-23T17:00:40.637Z,3.40
2023-05-23T17:03:09.111Z,2.47
2023-05-23T17:05:39.228Z,3.03
2023-05-23T17:08:07.724Z,3.10
2023-05-23T17:10:36.819Z,3.63
2023-05-23T17:13:05.122Z,3.00
2023-05-23T17:15:33.422Z,3.10
2023-05-23T17:18:01.756Z,3.10
2023-05-23T17:20:30.115Z,2.93
2023-05-23T17:22:59.702Z,2.90
2023-05-23T17:25:28.045Z,2.67
2023-05-23T17:27:56.799Z,2.70
2023-05-23T17:30:25.056Z,2.50
2023-05-23T17:32:53.382Z,3.47
2023-05-23T17:35:21.720Z,2.57
2023-05-23T17:37:50.372Z,3.10
2023-05-23T17:40:20.207Z,2.57
2023-05-23T17:42:48.635Z,2.73
2023-05-23T17:45:17.039Z,2.80
2023-05-23T17:47:45.584Z,3.43
2023-05-23T17:50:14.146Z,2.53
2023-05-23T17:52:42.575Z,2.60
2023-05-23T17:55:11.226Z,2.70
2023-05-23T17:57:40.990Z,3.00
2023-05-23T18:00:10.044Z,3.10
2023-05-23T18:02:38.383Z,3.03
2023-05-23T18:05:07.625Z,3.23
2023-05-23T18:07:36.163Z,2.97
2023-05-23T18:10:05.116Z,2.90
2023-05-23T18:12:33.438Z,4.83
2023-05-23T18:15:03.334Z,2.90
2023-05-23T18:17:31.770Z,3.23
2023-05-23T18:20:00.388Z,2.57
2023-05-23T18:22:31.065Z,3.17
2023-05-23T18:24:59.870Z,3.13
2023-05-23T18:27:28.514Z,2.90
2023-05-23T18:29:56.887Z,2.57
2023-05-23T18:32:26.833Z,2.80
2023-05-23T18:34:56.021Z,2.90
2023-05-23T18:37:24.358Z,2.90
2023-05-23T18:39:53.075Z,3.20
2023-05-23T18:42:23.896Z,3.03
2023-05-23T18:44:52.884Z,2.70
2023-05-23T18:47:21.502Z,2.50
2023-05-23T18:49:51.569Z,2.40
2023-05-23T18:52:19.967Z,2.87
2023-05-23T18:54:48.849Z,3.07
2023-05-23T18:57:17.892Z,3.30
2023-05-23T18:59:46.274Z,2.77
2023-05-23T19:02:14.818Z,2.70
2023-05-23T19:04:43.750Z,3.07
2023-05-23T19:07:13.826Z,2.80
2023-05-23T19:09:42.249Z,2.53
2023-05-23T19:12:10.662Z,2.80
2023-05-23T19:14:39.349Z,3.10
2023-05-23T19:17:08.173Z,3.03
2023-05-23T19:19:37.165Z,3.83
2023-05-23T19:22:06.985Z,2.50
2023-05-23T19:24:37.326Z,2.57
2023-05-23T19:27:06.441Z,2.93
2023-05-23T19:29:34.912Z,3.20
2023-05-23T19:32:04.289Z,3.07
2023-05-23T19:34:33.020Z,2.63
2023-05-23T19:37:02.614Z,2.87
2023-05-23T19:39:30.967Z,3.27
2023-05-23T19:42:01.238Z,2.57
2023-05-23T19:44:29.853Z,3.03
2023-05-23T19:46:58.245Z,2.97
2023-05-23T19:49:26.770Z,2.80
2023-05-23T19:51:55.112Z,3.00
2023-05-23T19:54:24.265Z,3.57
2023-05-23T19:56:52.677Z,3.27
2023-05-23T19:59:22.354Z,2.90
2023-05-23T20:01:50.754Z,3.13
2023-05-23T20:04:19.181Z,2.90
2023-05-23T20:06:47.569Z,3.20
2023-05-23T20:09:15.918Z,2.87
2023-05-23T20:11:44.254Z,2.87
2023-05-23T20:14:13.082Z,2.70
2023-05-23T20:16:42.829Z,2.50
2023-05-23T20:19:11.483Z,2.57
2023-05-23T20:21:39.840Z,3.53
2023-05-23T20:24:08.854Z,3.07
2023-05-23T20:26:37.114Z,2.77
2023-05-23T20:29:05.427Z,3.20
2023-05-23T20:31:33.855Z,2.60
2023-05-23T20:34:03.539Z,2.90
2023-05-23T20:36:31.843Z,2.57
2023-05-23T20:39:00.227Z,2.70
2023-05-23T20:41:29.383Z,2.80
2023-05-23T20:43:57.690Z,2.90
2023-05-23T20:46:26.235Z,2.80
2023-05-23T20:48:54.597Z,2.77
2023-05-23T20:51:24.333Z,2.83
2023-05-23T20:53:53.285Z,2.60
2023-05-23T20:56:22.564Z,2.80
2023-05-23T20:58:50.899Z,2.90
2023-05-23T21:01:22.781Z,2.60
2023-05-23T21:03:51.165Z,3.00
2023-05-23T21:06:19.599Z,2.93
2023-05-23T21:08:49.377Z,2.97
2023-05-23T21:11:17.662Z,2.80
2023-05-23T21:13:46.000Z,2.47
2023-05-23T21:16:14.944Z,2.97
2023-05-23T21:18:43.310Z,3.37
2023-05-23T21:21:11.591Z,3.10
2023-05-23T21:23:40.067Z,2.67
2023-05-23T21:26:09.823Z,3.20
2023-05-23T21:28:38.222Z,3.70
2023-05-23T21:31:06.869Z,2.63
2023-05-23T21:33:35.187Z,3.20
2023-05-23T21:36:03.549Z,2.97
2023-05-23T21:38:31.990Z,2.77
2023-05-23T21:41:00.566Z,3.30
2023-05-23T21:43:30.255Z,2.97
2023-05-23T21:45:58.662Z,2.83
2023-05-23T21:48:26.975Z,2.90
2023-05-23T21:50:55.328Z,3.40
2023-05-23T21:53:24.168Z,2.97
2023-05-23T21:55:52.501Z,3.20
2023-05-23T21:58:20.834Z,3.00
2023-05-23T22:00:50.616Z,3.10
2023-05-23T22:03:19.042Z,3.20
2023-05-23T22:05:47.480Z,2.70
2023-05-23T22:08:16.238Z,3.23
2023-05-23T22:10:44.555Z,3.20
2023-05-23T22:13:12.996Z,3.47
2023-05-23T22:15:41.418Z,3.07
2023-05-23T22:18:13.719Z,2.80
2023-05-23T22:20:42.311Z,3.50
2023-05-23T22:23:16.686Z,3.30
2023-05-23T22:25:45.074Z,3.17
2023-05-23T22:28:13.378Z,3.50
2023-05-23T22:30:42.042Z,3.40
2023-05-23T22:33:13.209Z,3.40
2023-05-23T22:35:41.985Z,3.20
2023-05-23T22:38:11.254Z,3.30
2023-05-23T22:40:39.723Z,3.43
2023-05-23T22:43:08.387Z,3.43
2023-05-23T22:45:40.575Z,3.40
2023-05-23T22:48:09.595Z,3.03
2023-05-23T22:50:40.808Z,3.13
2023-05-23T22:53:09.561Z,3.07
2023-05-23T22:55:37.896Z,3.60
2023-05-23T22:58:07.920Z,3.40
2023-05-23T23:00:36.542Z,3.37
2023-05-23T23:03:04.954Z,3.63
2023-05-23T23:05:33.346Z,3.77
2023-05-23T23:08:02.977Z,3.50
2023-05-23T23:10:31.618Z,3.80
2023-05-23T23:12:59.928Z,3.90
2023-05-23T23:15:30.191Z,4.03
2023-05-23T23:17:58.617Z,3.43
2023-05-23T23:20:27.086Z,3.47
2023-05-23T23:22:56.033Z,4.33
2023-05-23T23:25:26.206Z,3.33
2023-05-23T23:27:54.497Z,3.53
2023-05-23T23:30:22.877Z,3.77
2023-05-23T23:32:51.267Z,4.13
2023-05-23T23:35:19.698Z,3.43
2023-05-23T23:37:48.051Z,4.07
2023-05-23T23:40:16.309Z,3.30
2023-05-23T23:42:46.056Z,3.40
2023-05-23T23:45:14.333Z,3.70
2023-05-23T23:47:42.864Z,3.40
2023-05-23T23:50:13.475Z,3.03
2023-05-23T23:52:41.912Z,3.10
2023-05-23T23:55:10.579Z,3.57
2023-05-23T23:57:38.880Z,3.60
